HAZ2142 ZSOF-ZSHC
Flight info
| Callsign | HAZ2142 |
|---|---|
| Flight time | 0h 45m |
| Altitude | 16700 |
| Route | MAD02D/33 MADUK R343 UPLEL W95 SAPIN A470 IGRAT |
| Aircraft | B738/M-SDE2E3FGHIRWXY/LB1 |
Departure
| Time | 2026-04-20 01:41 |
|---|---|
| Airport | Hefei Xinqiao International Airport (ZSOF) |
Arrival
| Time | 2026-04-20 02:27 |
|---|---|
| Airport | Hangzhou Xiaoshan International Airport (ZSHC) |
| Time | Latitude | Longitude | Altitude | Speed | Heading |
|---|---|---|---|---|---|
| 2026-04-20 01:17 | 31.98315 | 116.97582 | 216 ft | 0 kts | 240° |
| 2026-04-20 01:33 | 31.98317 | 116.97586 | 216 ft | 2 kts | 240° |
| 2026-04-20 01:33 | 31.98324 | 116.97602 | 216 ft | 2 kts | 239° |
| 2026-04-20 01:33 | 31.98332 | 116.97617 | 216 ft | 2 kts | 240° |
| 2026-04-20 01:33 | 31.98336 | 116.97627 | 216 ft | 2 kts | 236° |
| 2026-04-20 01:34 | 31.98347 | 116.97639 | 216 ft | 2 kts | 206° |
| 2026-04-20 01:34 | 31.98362 | 116.97644 | 216 ft | 2 kts | 184° |
| 2026-04-20 01:34 | 31.98377 | 116.97642 | 216 ft | 2 kts | 160° |
| 2026-04-20 01:34 | 31.98384 | 116.97639 | 216 ft | 1 kts | 146° |
| 2026-04-20 01:35 | 31.98388 | 116.97636 | 216 ft | 0 kts | 149° |
| 2026-04-20 01:36 | 31.98387 | 116.97636 | 216 ft | 0 kts | 150° |
| 2026-04-20 01:36 | 31.98372 | 116.97646 | 216 ft | 4 kts | 150° |
| 2026-04-20 01:37 | 31.98331 | 116.97673 | 216 ft | 8 kts | 150° |
| 2026-04-20 01:37 | 31.98269 | 116.97715 | 216 ft | 10 kts | 150° |
| 2026-04-20 01:37 | 31.98201 | 116.97760 | 216 ft | 11 kts | 150° |
| 2026-04-20 01:37 | 31.98125 | 116.97812 | 216 ft | 13 kts | 150° |
| 2026-04-20 01:38 | 31.98041 | 116.97868 | 216 ft | 14 kts | 150° |
| 2026-04-20 01:38 | 31.97948 | 116.97931 | 216 ft | 16 kts | 150° |
| 2026-04-20 01:38 | 31.97847 | 116.98000 | 216 ft | 17 kts | 150° |
| 2026-04-20 01:38 | 31.97737 | 116.98073 | 216 ft | 18 kts | 150° |
| 2026-04-20 01:39 | 31.97622 | 116.98151 | 216 ft | 15 kts | 150° |
| 2026-04-20 01:39 | 31.97574 | 116.98214 | 216 ft | 11 kts | 77° |
| 2026-04-20 01:39 | 31.97613 | 116.98302 | 216 ft | 12 kts | 60° |
| 2026-04-20 01:39 | 31.97657 | 116.98394 | 216 ft | 13 kts | 60° |
| 2026-04-20 01:40 | 31.97724 | 116.98418 | 216 ft | 11 kts | 328° |
| 2026-04-20 01:40 | 31.97740 | 116.98406 | 216 ft | 0 kts | 330° |
| 2026-04-20 01:40 | 31.97775 | 116.98383 | 216 ft | 29 kts | 329° |
| 2026-04-20 01:40 | 31.98164 | 116.98119 | 216 ft | 96 kts | 330° |
| 2026-04-20 01:41 | 31.98913 | 116.97613 | 218 ft | 149 kts | 329° |
| 2026-04-20 01:41 | 31.99825 | 116.96985 | 766 ft | 151 kts | 330° |
| 2026-04-20 01:41 | 32.00741 | 116.96331 | 1325 ft | 160 kts | 334° |
| 2026-04-20 01:41 | 32.01718 | 116.95667 | 1892 ft | 166 kts | 336° |
| 2026-04-20 01:42 | 32.02729 | 116.94995 | 2417 ft | 170 kts | 336° |
| 2026-04-20 01:42 | 32.03771 | 116.94307 | 2933 ft | 174 kts | 337° |
| 2026-04-20 01:42 | 32.04838 | 116.93600 | 3419 ft | 181 kts | 337° |
| 2026-04-20 01:42 | 32.05989 | 116.92844 | 3747 ft | 199 kts | 335° |
| 2026-04-20 01:43 | 32.07283 | 116.92180 | 4159 ft | 209 kts | 350° |
| 2026-04-20 01:43 | 32.08737 | 116.92082 | 4775 ft | 212 kts | 8° |
| 2026-04-20 01:43 | 32.10144 | 116.92603 | 5402 ft | 216 kts | 28° |
| 2026-04-20 01:43 | 32.11284 | 116.93795 | 6023 ft | 225 kts | 52° |
| 2026-04-20 01:44 | 32.12077 | 116.95401 | 6605 ft | 234 kts | 62° |
| 2026-04-20 01:44 | 32.12512 | 116.97291 | 7177 ft | 245 kts | 85° |
| 2026-04-20 01:44 | 32.12254 | 116.99277 | 7778 ft | 254 kts | 111° |
| 2026-04-20 01:44 | 32.11337 | 117.01090 | 8228 ft | 267 kts | 133° |
| 2026-04-20 01:45 | 32.09872 | 117.02486 | 8660 ft | 278 kts | 150° |
| 2026-04-20 01:45 | 32.08153 | 117.03627 | 9099 ft | 291 kts | 154° |
| 2026-04-20 01:45 | 32.06319 | 117.04779 | 9606 ft | 303 kts | 154° |
| 2026-04-20 01:45 | 32.04455 | 117.05980 | 10286 ft | 308 kts | 154° |
| 2026-04-20 01:46 | 32.02555 | 117.07236 | 10801 ft | 320 kts | 154° |
| 2026-04-20 01:46 | 32.00582 | 117.08559 | 11232 ft | 335 kts | 154° |
| 2026-04-20 01:46 | 31.98522 | 117.09948 | 11630 ft | 350 kts | 154° |
| 2026-04-20 01:46 | 31.96353 | 117.11415 | 12049 ft | 364 kts | 154° |
| 2026-04-20 01:47 | 31.94113 | 117.12927 | 12419 ft | 379 kts | 153° |
| 2026-04-20 01:47 | 31.91817 | 117.14477 | 12837 ft | 391 kts | 153° |
| 2026-04-20 01:47 | 31.89446 | 117.16080 | 13515 ft | 395 kts | 154° |
| 2026-04-20 01:47 | 31.87037 | 117.17709 | 14172 ft | 400 kts | 154° |
| 2026-04-20 01:48 | 31.84687 | 117.19453 | 14802 ft | 408 kts | 146° |
| 2026-04-20 01:48 | 31.82602 | 117.21741 | 15500 ft | 416 kts | 134° |
| 2026-04-20 01:48 | 31.80759 | 117.24386 | 16101 ft | 423 kts | 130° |
| 2026-04-20 01:48 | 31.78995 | 117.27225 | 16655 ft | 428 kts | 128° |
| 2026-04-20 01:49 | 31.77289 | 117.30096 | 16827 ft | 432 kts | 127° |
| 2026-04-20 01:49 | 31.75605 | 117.32975 | 16825 ft | 427 kts | 127° |
| 2026-04-20 01:49 | 31.73914 | 117.35866 | 16822 ft | 428 kts | 127° |
| 2026-04-20 01:49 | 31.72212 | 117.38744 | 16816 ft | 429 kts | 128° |
| 2026-04-20 01:50 | 31.70515 | 117.41582 | 16824 ft | 429 kts | 128° |
| 2026-04-20 01:50 | 31.68785 | 117.44448 | 16818 ft | 427 kts | 128° |
| 2026-04-20 01:50 | 31.67060 | 117.47288 | 16811 ft | 427 kts | 128° |
| 2026-04-20 01:50 | 31.65341 | 117.50105 | 16817 ft | 427 kts | 128° |
| 2026-04-20 01:51 | 31.63618 | 117.52963 | 16818 ft | 435 kts | 126° |
| 2026-04-20 01:51 | 31.62165 | 117.56121 | 16802 ft | 445 kts | 112° |
| 2026-04-20 01:51 | 31.61495 | 117.59669 | 16815 ft | 445 kts | 93° |
| 2026-04-20 01:51 | 31.61763 | 117.63226 | 16821 ft | 445 kts | 78° |
| 2026-04-20 01:52 | 31.62450 | 117.66769 | 16822 ft | 445 kts | 75° |
| 2026-04-20 01:52 | 31.63244 | 117.70295 | 16813 ft | 446 kts | 74° |
| 2026-04-20 01:52 | 31.64063 | 117.73796 | 16810 ft | 444 kts | 73° |
| 2026-04-20 01:52 | 31.64866 | 117.77278 | 16812 ft | 447 kts | 74° |
| 2026-04-20 01:53 | 31.65657 | 117.80804 | 16817 ft | 444 kts | 75° |
| 2026-04-20 01:53 | 31.66412 | 117.84279 | 16818 ft | 444 kts | 75° |
| 2026-04-20 01:53 | 31.67162 | 117.87818 | 16813 ft | 445 kts | 75° |
| 2026-04-20 01:53 | 31.67891 | 117.91309 | 16818 ft | 448 kts | 75° |
| 2026-04-20 01:54 | 31.68624 | 117.94855 | 16815 ft | 446 kts | 75° |
| 2026-04-20 01:54 | 31.69353 | 117.98397 | 16816 ft | 448 kts | 75° |
| 2026-04-20 01:54 | 31.70082 | 118.01952 | 16804 ft | 446 kts | 76° |
| 2026-04-20 01:54 | 31.70796 | 118.05488 | 16807 ft | 447 kts | 76° |
| 2026-04-20 01:55 | 31.71358 | 118.09078 | 16811 ft | 447 kts | 81° |
| 2026-04-20 01:55 | 31.71608 | 118.12705 | 16806 ft | 448 kts | 88° |
| 2026-04-20 01:55 | 31.71575 | 118.16349 | 16808 ft | 448 kts | 92° |
| 2026-04-20 01:55 | 31.71374 | 118.20003 | 16802 ft | 448 kts | 95° |
| 2026-04-20 01:56 | 31.71098 | 118.23603 | 16800 ft | 448 kts | 96° |
| 2026-04-20 01:56 | 31.70792 | 118.27249 | 16816 ft | 446 kts | 96° |
| 2026-04-20 01:56 | 31.70485 | 118.30878 | 16795 ft | 449 kts | 96° |
| 2026-04-20 01:56 | 31.70185 | 118.34524 | 16801 ft | 448 kts | 96° |
| 2026-04-20 01:57 | 31.69899 | 118.38147 | 16798 ft | 447 kts | 95° |
| 2026-04-20 01:57 | 31.69622 | 118.41768 | 16801 ft | 449 kts | 95° |
| 2026-04-20 01:57 | 31.69351 | 118.45398 | 16796 ft | 447 kts | 95° |
| 2026-04-20 01:57 | 31.69087 | 118.49028 | 16795 ft | 446 kts | 95° |
| 2026-04-20 01:58 | 31.68824 | 118.52659 | 16787 ft | 449 kts | 95° |
| 2026-04-20 01:58 | 31.68563 | 118.56272 | 16782 ft | 447 kts | 95° |
| 2026-04-20 01:58 | 31.68298 | 118.59941 | 16796 ft | 449 kts | 95° |
| 2026-04-20 01:58 | 31.68036 | 118.63563 | 16792 ft | 447 kts | 95° |
| 2026-04-20 01:59 | 31.67773 | 118.67172 | 16774 ft | 447 kts | 95° |
| 2026-04-20 01:59 | 31.67507 | 118.70805 | 16770 ft | 446 kts | 95° |
| 2026-04-20 01:59 | 31.67239 | 118.74448 | 16778 ft | 446 kts | 95° |
| 2026-04-20 01:59 | 31.66972 | 118.78051 | 16786 ft | 449 kts | 95° |
| 2026-04-20 02:00 | 31.66702 | 118.81684 | 16781 ft | 448 kts | 95° |
| 2026-04-20 02:00 | 31.66429 | 118.85355 | 16780 ft | 448 kts | 96° |
| 2026-04-20 02:00 | 31.66156 | 118.88994 | 16780 ft | 449 kts | 95° |
| 2026-04-20 02:00 | 31.65874 | 118.92618 | 16779 ft | 446 kts | 97° |
| 2026-04-20 02:01 | 31.65329 | 118.96195 | 16785 ft | 448 kts | 106° |
| 2026-04-20 02:01 | 31.64122 | 118.99524 | 16771 ft | 441 kts | 125° |
| 2026-04-20 02:01 | 31.62122 | 119.02189 | 16788 ft | 434 kts | 142° |
| 2026-04-20 02:01 | 31.59780 | 119.04370 | 16776 ft | 432 kts | 147° |
| 2026-04-20 02:02 | 31.57345 | 119.06419 | 16774 ft | 431 kts | 148° |
| 2026-04-20 02:02 | 31.54860 | 119.08446 | 16769 ft | 432 kts | 149° |
| 2026-04-20 02:02 | 31.52418 | 119.10449 | 16775 ft | 431 kts | 148° |
| 2026-04-20 02:02 | 31.49971 | 119.12491 | 16774 ft | 432 kts | 148° |
| 2026-04-20 02:03 | 31.47529 | 119.14565 | 16766 ft | 431 kts | 147° |
| 2026-04-20 02:03 | 31.45109 | 119.16650 | 16760 ft | 432 kts | 147° |
| 2026-04-20 02:03 | 31.42695 | 119.18745 | 16765 ft | 431 kts | 147° |
| 2026-04-20 02:03 | 31.40312 | 119.20821 | 16758 ft | 430 kts | 146° |
| 2026-04-20 02:04 | 31.37912 | 119.22917 | 16756 ft | 430 kts | 147° |
| 2026-04-20 02:04 | 31.35526 | 119.25001 | 16765 ft | 430 kts | 147° |
| 2026-04-20 02:04 | 31.33108 | 119.27110 | 16769 ft | 431 kts | 146° |
| 2026-04-20 02:04 | 31.30709 | 119.29201 | 16769 ft | 429 kts | 146° |
| 2026-04-20 02:05 | 31.28328 | 119.31275 | 16769 ft | 432 kts | 147° |
| 2026-04-20 02:05 | 31.25890 | 119.33395 | 16754 ft | 430 kts | 146° |
| 2026-04-20 02:05 | 31.23493 | 119.35481 | 16751 ft | 429 kts | 147° |
| 2026-04-20 02:05 | 31.21100 | 119.37561 | 16758 ft | 430 kts | 146° |
| 2026-04-20 02:06 | 31.18721 | 119.39625 | 16761 ft | 430 kts | 146° |
| 2026-04-20 02:06 | 31.16311 | 119.41724 | 16763 ft | 430 kts | 146° |
| 2026-04-20 02:06 | 31.13914 | 119.43819 | 16743 ft | 428 kts | 146° |
| 2026-04-20 02:06 | 31.11575 | 119.45870 | 16753 ft | 413 kts | 146° |
| 2026-04-20 02:07 | 31.09345 | 119.47832 | 16749 ft | 393 kts | 146° |
| 2026-04-20 02:07 | 31.07212 | 119.49706 | 16756 ft | 377 kts | 146° |
| 2026-04-20 02:07 | 31.05121 | 119.51535 | 16750 ft | 376 kts | 147° |
| 2026-04-20 02:07 | 31.03002 | 119.53378 | 16664 ft | 378 kts | 147° |
| 2026-04-20 02:08 | 31.00913 | 119.55194 | 16350 ft | 375 kts | 146° |
| 2026-04-20 02:08 | 30.98823 | 119.57013 | 15908 ft | 372 kts | 147° |
| 2026-04-20 02:08 | 30.96766 | 119.58801 | 15375 ft | 370 kts | 146° |
| 2026-04-20 02:08 | 30.94723 | 119.60578 | 14873 ft | 369 kts | 146° |
| 2026-04-20 02:09 | 30.92654 | 119.62378 | 14306 ft | 367 kts | 146° |
| 2026-04-20 02:09 | 30.90683 | 119.64093 | 13816 ft | 366 kts | 146° |
| 2026-04-20 02:09 | 30.88655 | 119.65854 | 13281 ft | 364 kts | 147° |
| 2026-04-20 02:09 | 30.86637 | 119.67605 | 12760 ft | 363 kts | 146° |
| 2026-04-20 02:10 | 30.84617 | 119.69355 | 12240 ft | 361 kts | 146° |
| 2026-04-20 02:10 | 30.82597 | 119.71106 | 11686 ft | 359 kts | 146° |
| 2026-04-20 02:10 | 30.80615 | 119.72826 | 11108 ft | 349 kts | 146° |
| 2026-04-20 02:10 | 30.78723 | 119.74468 | 10702 ft | 336 kts | 145° |
| 2026-04-20 02:11 | 30.76852 | 119.76090 | 10400 ft | 329 kts | 146° |
| 2026-04-20 02:11 | 30.75048 | 119.77651 | 10268 ft | 316 kts | 146° |
| 2026-04-20 02:11 | 30.73334 | 119.79134 | 10138 ft | 305 kts | 146° |
| 2026-04-20 02:11 | 30.71636 | 119.80604 | 9845 ft | 300 kts | 144° |
| 2026-04-20 02:12 | 30.70010 | 119.82050 | 9812 ft | 292 kts | 144° |
| 2026-04-20 02:12 | 30.68399 | 119.83521 | 9813 ft | 296 kts | 143° |
| 2026-04-20 02:12 | 30.66784 | 119.85006 | 9827 ft | 295 kts | 143° |
| 2026-04-20 02:12 | 30.65180 | 119.86476 | 9819 ft | 297 kts | 144° |
| 2026-04-20 02:13 | 30.63506 | 119.87860 | 9820 ft | 294 kts | 150° |
| 2026-04-20 02:13 | 30.61732 | 119.89059 | 9825 ft | 294 kts | 154° |
| 2026-04-20 02:13 | 30.59932 | 119.90178 | 9815 ft | 293 kts | 154° |
| 2026-04-20 02:13 | 30.58133 | 119.91281 | 9694 ft | 288 kts | 154° |
| 2026-04-20 02:14 | 30.56381 | 119.92368 | 9406 ft | 285 kts | 154° |
| 2026-04-20 02:14 | 30.54627 | 119.93471 | 9041 ft | 285 kts | 153° |
| 2026-04-20 02:14 | 30.52885 | 119.94573 | 8679 ft | 284 kts | 153° |
| 2026-04-20 02:14 | 30.51155 | 119.95671 | 8346 ft | 282 kts | 153° |
| 2026-04-20 02:15 | 30.49457 | 119.96749 | 8012 ft | 281 kts | 153° |
| 2026-04-20 02:15 | 30.47744 | 119.97833 | 7665 ft | 280 kts | 152° |
| 2026-04-20 02:15 | 30.46030 | 119.98919 | 7310 ft | 279 kts | 152° |
| 2026-04-20 02:15 | 30.44326 | 119.99997 | 6990 ft | 279 kts | 152° |
| 2026-04-20 02:16 | 30.42626 | 120.01073 | 6912 ft | 278 kts | 152° |
| 2026-04-20 02:16 | 30.40908 | 120.02161 | 6908 ft | 282 kts | 152° |
| 2026-04-20 02:16 | 30.39198 | 120.03244 | 6892 ft | 280 kts | 152° |
| 2026-04-20 02:16 | 30.37480 | 120.04331 | 6912 ft | 281 kts | 152° |
| 2026-04-20 02:17 | 30.35641 | 120.05090 | 6909 ft | 281 kts | 173° |
| 2026-04-20 02:17 | 30.33698 | 120.05177 | 6895 ft | 279 kts | 182° |
| 2026-04-20 02:17 | 30.31733 | 120.05164 | 6642 ft | 280 kts | 181° |
| 2026-04-20 02:17 | 30.29789 | 120.05205 | 6390 ft | 278 kts | 180° |
| 2026-04-20 02:18 | 30.27846 | 120.05259 | 6142 ft | 277 kts | 180° |
| 2026-04-20 02:18 | 30.25942 | 120.05302 | 5939 ft | 275 kts | 180° |
| 2026-04-20 02:18 | 30.24020 | 120.05336 | 5908 ft | 272 kts | 181° |
| 2026-04-20 02:18 | 30.22099 | 120.05361 | 5900 ft | 278 kts | 180° |
| 2026-04-20 02:19 | 30.20201 | 120.05386 | 5914 ft | 269 kts | 181° |
| 2026-04-20 02:19 | 30.18345 | 120.05412 | 5899 ft | 262 kts | 181° |
| 2026-04-20 02:19 | 30.16561 | 120.05495 | 5902 ft | 252 kts | 174° |
| 2026-04-20 02:19 | 30.14892 | 120.05987 | 5780 ft | 251 kts | 156° |
| 2026-04-20 02:20 | 30.13331 | 120.06921 | 5424 ft | 254 kts | 149° |
| 2026-04-20 02:20 | 30.11963 | 120.08193 | 5139 ft | 250 kts | 127° |
| 2026-04-20 02:20 | 30.11140 | 120.09885 | 4904 ft | 234 kts | 103° |
| 2026-04-20 02:20 | 30.11069 | 120.11669 | 4665 ft | 218 kts | 73° |
| 2026-04-20 02:21 | 30.12173 | 120.14741 | 4171 ft | 203 kts | 60° |
| 2026-04-20 02:21 | 30.12800 | 120.16184 | 3975 ft | 196 kts | 59° |
| 2026-04-20 02:21 | 30.13403 | 120.17550 | 3893 ft | 187 kts | 60° |
| 2026-04-20 02:22 | 30.14009 | 120.18896 | 3905 ft | 191 kts | 59° |
| 2026-04-20 02:22 | 30.14622 | 120.20258 | 3868 ft | 189 kts | 59° |
| 2026-04-20 02:22 | 30.15218 | 120.21594 | 3683 ft | 188 kts | 60° |
| 2026-04-20 02:22 | 30.15823 | 120.22942 | 3404 ft | 187 kts | 59° |
| 2026-04-20 02:23 | 30.16418 | 120.24271 | 3149 ft | 186 kts | 60° |
| 2026-04-20 02:23 | 30.17005 | 120.25586 | 2903 ft | 184 kts | 59° |
| 2026-04-20 02:23 | 30.17569 | 120.26848 | 2685 ft | 171 kts | 59° |
| 2026-04-20 02:23 | 30.18098 | 120.28038 | 2462 ft | 155 kts | 59° |
| 2026-04-20 02:24 | 30.18590 | 120.29131 | 2222 ft | 151 kts | 59° |
| 2026-04-20 02:24 | 30.19059 | 120.30175 | 2039 ft | 147 kts | 59° |
| 2026-04-20 02:24 | 30.19533 | 120.31238 | 1833 ft | 148 kts | 59° |
| 2026-04-20 02:24 | 30.19999 | 120.32278 | 1648 ft | 147 kts | 60° |
| 2026-04-20 02:25 | 30.20466 | 120.33328 | 1451 ft | 145 kts | 60° |
| 2026-04-20 02:25 | 30.20934 | 120.34376 | 1264 ft | 146 kts | 60° |
| 2026-04-20 02:25 | 30.21400 | 120.35418 | 1063 ft | 144 kts | 60° |
| 2026-04-20 02:25 | 30.21863 | 120.36453 | 881 ft | 148 kts | 60° |
| 2026-04-20 02:26 | 30.22174 | 120.37149 | 751 ft | 145 kts | 59° |
| 2026-04-20 02:26 | 30.22792 | 120.38527 | 474 ft | 143 kts | 59° |
| 2026-04-20 02:26 | 30.23250 | 120.39555 | 290 ft | 144 kts | 59° |
| 2026-04-20 02:26 | 30.23709 | 120.40584 | 101 ft | 143 kts | 61° |
| 2026-04-20 02:27 | 30.24145 | 120.41568 | 28 ft | 121 kts | 61° |
| 2026-04-20 02:27 | 30.24406 | 120.42151 | 28 ft | 46 kts | 63° |
| 2026-04-20 02:27 | 30.24526 | 120.42426 | 28 ft | 28 kts | 70° |
| 2026-04-20 02:27 | 30.24558 | 120.42625 | 28 ft | 17 kts | 88° |
| 2026-04-20 02:28 | 30.24558 | 120.42691 | 28 ft | 4 kts | 89° |
| 2026-04-20 02:28 | 30.24558 | 120.42724 | 28 ft | 3 kts | 91° |
| 2026-04-20 02:28 | 30.24555 | 120.42753 | 28 ft | 3 kts | 111° |
| 2026-04-20 02:28 | 30.24529 | 120.42780 | 28 ft | 7 kts | 158° |
| 2026-04-20 02:29 | 30.24463 | 120.42749 | 28 ft | 12 kts | 198° |
| 2026-04-20 02:29 | 30.24385 | 120.42780 | 28 ft | 11 kts | 152° |
| 2026-04-20 02:29 | 30.24310 | 120.42800 | 28 ft | 11 kts | 210° |
| 2026-04-20 02:29 | 30.24278 | 120.42743 | 28 ft | 6 kts | 243° |
| 2026-04-20 02:30 | 30.24257 | 120.42696 | 28 ft | 6 kts | 243° |
| 2026-04-20 02:30 | 30.24238 | 120.42652 | 28 ft | 5 kts | 243° |
| 2026-04-20 02:30 | 30.24219 | 120.42611 | 28 ft | 5 kts | 243° |
| 2026-04-20 02:30 | 30.24202 | 120.42571 | 28 ft | 5 kts | 243° |
| 2026-04-20 02:31 | 30.24178 | 120.42534 | 28 ft | 6 kts | 205° |
| 2026-04-20 02:31 | 30.24126 | 120.42548 | 28 ft | 9 kts | 153° |
| 2026-04-20 02:31 | 30.24064 | 120.42584 | 28 ft | 10 kts | 153° |
| 2026-04-20 02:31 | 30.24003 | 120.42621 | 28 ft | 7 kts | 141° |
| 2026-04-20 02:32 | 30.24003 | 120.42665 | 28 ft | 4 kts | 65° |
| 2026-04-20 02:32 | 30.24012 | 120.42686 | 28 ft | 0 kts | 63° |